createdAt,value
2023-08-01T00:00:12.721Z,95397.34
2023-08-01T00:02:43.583Z,95392.16
2023-08-01T00:05:12.866Z,95376.41
2023-08-01T00:07:41.780Z,95390.16
2023-08-01T00:10:11.374Z,95390.72
2023-08-01T00:12:41.408Z,95381.84
2023-08-01T00:15:11.316Z,95385.06
2023-08-01T00:17:40.045Z,95379.53
2023-08-01T00:20:09.949Z,95374.63
2023-08-01T00:22:38.522Z,95367.03
2023-08-01T00:25:08.416Z,95366.41
2023-08-01T00:27:39.820Z,95354.75
2023-08-01T00:30:12.106Z,95354.94
2023-08-01T00:32:40.986Z,95351.72
2023-08-01T00:35:10.269Z,95342.91
2023-08-01T00:37:40.215Z,95351.63
2023-08-01T00:40:10.645Z,95346.91
2023-08-01T00:42:40.088Z,95344.31
2023-08-01T00:45:11.839Z,95347.69
2023-08-01T00:47:41.075Z,95341.72
2023-08-01T00:50:10.282Z,95339.31
2023-08-01T00:52:39.060Z,95340.72
2023-08-01T00:55:09.204Z,95342.63
2023-08-01T00:57:38.137Z,95338.22
2023-08-01T01:00:08.179Z,95336.19
2023-08-01T01:02:39.200Z,95329.28
2023-08-01T01:05:08.901Z,95322.97
2023-08-01T01:07:37.824Z,95320.66
2023-08-01T01:10:06.768Z,95319.19
2023-08-01T01:12:35.436Z,95314.03
2023-08-01T01:15:04.559Z,95297.72
2023-08-01T01:17:33.210Z,95299.75
2023-08-01T01:20:03.525Z,95296.00
2023-08-01T01:22:35.292Z,95293.25
2023-08-01T01:25:04.878Z,95303.25
2023-08-01T01:27:34.046Z,95301.19
2023-08-01T01:30:04.985Z,95294.38
2023-08-01T01:32:33.760Z,95292.63
2023-08-01T01:35:04.766Z,95299.94
2023-08-01T01:37:35.022Z,95294.13
2023-08-01T01:40:04.249Z,95285.03
2023-08-01T01:42:33.178Z,95282.06
2023-08-01T01:45:02.784Z,95272.16
2023-08-01T01:47:31.789Z,95267.44
2023-08-01T01:50:01.030Z,95265.47
2023-08-01T01:52:31.114Z,95258.22
2023-08-01T01:55:03.194Z,95258.66
2023-08-01T01:57:31.923Z,95258.59
2023-08-01T02:00:01.085Z,95257.44
2023-08-01T02:02:29.870Z,95262.59
2023-08-01T02:04:59.093Z,95245.66
2023-08-01T02:07:27.977Z,95236.91
2023-08-01T02:09:57.635Z,95237.78
2023-08-01T02:12:27.847Z,95236.28
2023-08-01T02:14:56.672Z,95234.75
2023-08-01T02:17:25.466Z,95239.03
2023-08-01T02:19:54.669Z,95228.22
2023-08-01T02:22:23.261Z,95232.06
2023-08-01T02:24:54.597Z,95230.13
2023-08-01T02:27:23.105Z,95231.25
2023-08-01T02:29:53.438Z,95230.28
2023-08-01T02:32:22.203Z,95225.72
2023-08-01T02:34:51.399Z,95219.28
2023-08-01T02:37:20.114Z,95225.25
2023-08-01T02:39:48.906Z,95222.50
2023-08-01T02:42:17.722Z,95218.59
2023-08-01T02:44:46.412Z,95217.78
2023-08-01T02:47:16.579Z,95203.84
2023-08-01T02:49:45.917Z,95204.47
2023-08-01T02:52:14.488Z,95201.72
2023-08-01T02:54:43.852Z,95212.25
2023-08-01T03:00:12.836Z,95209.03
2023-08-01T03:02:43.653Z,95204.81
2023-08-01T03:05:13.248Z,95205.00
2023-08-01T03:07:41.822Z,95207.59
2023-08-01T03:10:17.135Z,95201.44
2023-08-01T03:12:52.139Z,95195.00
2023-08-01T03:15:21.464Z,95199.97
2023-08-01T03:17:51.665Z,95207.25
2023-08-01T03:20:20.863Z,95164.75
2023-08-01T03:22:49.969Z,95197.94
2023-08-01T03:25:19.120Z,95190.16
2023-08-01T03:27:48.150Z,95192.75
2023-08-01T03:30:17.231Z,95184.97
2023-08-01T03:32:46.596Z,95179.78
2023-08-01T03:35:17.377Z,95181.59
2023-08-01T03:37:46.219Z,95173.59
2023-08-01T03:40:15.340Z,95180.53
2023-08-01T03:42:45.286Z,95177.31
2023-08-01T03:45:14.309Z,95180.09
2023-08-01T03:47:42.945Z,95179.09
2023-08-01T03:50:13.334Z,95188.84
2023-08-01T03:52:43.388Z,95192.41
2023-08-01T03:55:13.014Z,95190.28
2023-08-01T03:57:42.294Z,95181.50
2023-08-01T04:00:14.987Z,95179.91
2023-08-01T04:02:46.649Z,95176.97
2023-08-01T04:05:17.274Z,95176.78
2023-08-01T04:07:47.691Z,95173.03
2023-08-01T04:10:16.590Z,95178.03
2023-08-01T04:12:45.850Z,95179.44
2023-08-01T04:15:14.455Z,95178.66
2023-08-01T04:20:14.124Z,95178.56
2023-08-01T04:22:43.240Z,95173.16
2023-08-01T04:25:13.855Z,95183.31
2023-08-01T04:27:43.160Z,95170.63
2023-08-01T04:30:12.922Z,95177.84
2023-08-01T04:32:42.435Z,95178.91
2023-08-01T04:35:11.550Z,95180.50
2023-08-01T04:37:40.581Z,95185.59
2023-08-01T04:40:10.674Z,95181.59
2023-08-01T04:42:40.978Z,95178.66
2023-08-01T04:45:10.717Z,95175.50
2023-08-01T04:47:39.912Z,95174.88
2023-08-01T04:50:09.589Z,95176.75
2023-08-01T04:52:38.509Z,95175.41
2023-08-01T04:55:08.639Z,95178.56
2023-08-01T04:57:37.985Z,95168.47
2023-08-01T05:00:10.066Z,95163.91
2023-08-01T05:02:39.041Z,95161.69
2023-08-01T05:05:08.924Z,95158.28
2023-08-01T05:07:37.725Z,95163.53
2023-08-01T05:10:07.096Z,95157.56
2023-08-01T05:12:35.744Z,95170.72
2023-08-01T05:15:05.197Z,95163.53
2023-08-01T05:17:35.900Z,95165.97
2023-08-01T05:20:05.744Z,95161.50
2023-08-01T05:22:34.585Z,95167.13
2023-08-01T05:25:08.678Z,95157.81
2023-08-01T05:27:37.727Z,95154.44
2023-08-01T05:30:07.068Z,95157.28
2023-08-01T05:32:37.342Z,95165.69
2023-08-01T05:35:06.522Z,95170.88
2023-08-01T05:37:37.563Z,95168.09
2023-08-01T05:40:07.259Z,95177.25
2023-08-01T05:42:36.056Z,95186.63
2023-08-01T05:45:05.519Z,95183.84
2023-08-01T05:47:34.631Z,95180.03
2023-08-01T05:50:05.354Z,95188.59
2023-08-01T05:52:34.266Z,95185.63
2023-08-01T05:55:03.081Z,95183.44
2023-08-01T05:57:32.049Z,95187.47
2023-08-01T06:00:00.588Z,95177.53
2023-08-01T06:02:29.827Z,95179.94
2023-08-01T06:04:59.020Z,95173.59
2023-08-01T06:07:29.824Z,95172.22
2023-08-01T06:09:58.736Z,95175.63
2023-08-01T06:12:30.252Z,95182.59
2023-08-01T06:14:59.248Z,95179.44
2023-08-01T06:17:28.296Z,95191.66
2023-08-01T06:19:57.105Z,95194.28
2023-08-01T06:22:25.445Z,95189.53
2023-08-01T06:24:57.949Z,95182.56
2023-08-01T06:27:29.297Z,95184.56
2023-08-01T06:29:58.388Z,95180.41
2023-08-01T06:32:27.318Z,95185.41
2023-08-01T06:34:56.544Z,95179.78
2023-08-01T06:37:25.214Z,95182.56
2023-08-01T06:39:54.206Z,95183.59
2023-08-01T06:42:23.843Z,95176.19
2023-08-01T06:44:52.561Z,95177.59
2023-08-01T06:47:21.525Z,95188.88
2023-08-01T06:49:52.144Z,95180.91
2023-08-01T06:52:20.805Z,95185.84
2023-08-01T06:54:49.570Z,95172.69
2023-08-01T06:57:18.028Z,95171.69
2023-08-01T06:59:48.349Z,95181.69
2023-08-01T07:02:17.857Z,95180.69
2023-08-01T07:04:49.750Z,95190.84
2023-08-01T07:07:18.814Z,95191.84
2023-08-01T07:09:47.540Z,95189.69
2023-08-01T07:12:17.469Z,95186.75
2023-08-01T07:14:47.570Z,95184.41
2023-08-01T07:17:16.567Z,95187.84
2023-08-01T07:19:45.387Z,95191.50
2023-08-01T07:22:15.596Z,95187.09
2023-08-01T07:24:44.245Z,95186.69
2023-08-01T07:27:14.132Z,95200.59
2023-08-01T07:29:42.929Z,95185.03
2023-08-01T07:32:13.580Z,95188.97
2023-08-01T07:34:42.672Z,95191.00
2023-08-01T07:37:11.646Z,95189.56
2023-08-01T07:39:40.632Z,95187.34
2023-08-01T07:42:09.719Z,95182.13
2023-08-01T07:44:38.916Z,95180.91
2023-08-01T07:47:07.970Z,95180.47
2023-08-01T07:49:40.575Z,95169.72
2023-08-01T07:52:12.108Z,95156.78
2023-08-01T07:54:40.992Z,95144.84
2023-08-01T07:57:10.675Z,95154.28
2023-08-01T07:59:39.335Z,95163.25
2023-08-01T08:02:08.403Z,95157.09
2023-08-01T08:04:38.598Z,95150.56
2023-08-01T08:07:08.091Z,95153.84
2023-08-01T08:09:36.648Z,95158.31
2023-08-01T08:12:10.548Z,95157.53
2023-08-01T08:14:39.831Z,95156.00
2023-08-01T08:17:11.330Z,95158.25
2023-08-01T08:19:42.080Z,95154.03
2023-08-01T08:22:10.609Z,95149.84
2023-08-01T08:24:39.371Z,95145.06
2023-08-01T08:27:08.588Z,95146.09
2023-08-01T08:29:38.020Z,95144.88
2023-08-01T08:32:10.508Z,95142.06
2023-08-01T08:34:40.910Z,95137.28
2023-08-01T08:37:11.118Z,95155.66
2023-08-01T08:39:40.102Z,95141.44
2023-08-01T08:42:09.040Z,95141.03
2023-08-01T08:44:40.267Z,95153.03
2023-08-01T08:47:11.201Z,95149.03
2023-08-01T08:49:40.192Z,95153.56
2023-08-01T08:52:14.807Z,95143.69
2023-08-01T08:54:43.929Z,95150.25
2023-08-01T08:57:13.549Z,95144.50
2023-08-01T08:59:42.476Z,95142.03
2023-08-01T09:02:11.964Z,95145.06
2023-08-01T09:04:41.301Z,95148.13
2023-08-01T09:07:13.697Z,95141.69
2023-08-01T09:09:45.522Z,95146.09
2023-08-01T09:12:15.106Z,95142.94
2023-08-01T09:14:45.809Z,95146.06
2023-08-01T09:17:17.777Z,95144.84
2023-08-01T09:19:46.824Z,95146.50
2023-08-01T09:22:17.150Z,95145.66
2023-08-01T09:24:56.841Z,95144.94
2023-08-01T09:27:25.985Z,95147.94
2023-08-01T09:29:54.795Z,95139.53
2023-08-01T09:32:23.396Z,95134.50
2023-08-01T09:35:01.136Z,95137.28
2023-08-01T09:37:41.272Z,95128.53
2023-08-01T09:40:11.097Z,95138.91
2023-08-01T09:42:43.011Z,95135.31
2023-08-01T09:45:16.674Z,95125.13
2023-08-01T09:47:48.777Z,95129.78
2023-08-01T09:50:23.712Z,95123.00
2023-08-01T09:52:54.803Z,95119.94
2023-08-01T09:55:29.082Z,95126.13
2023-08-01T09:58:01.654Z,95126.34
2023-08-01T10:00:31.425Z,95107.41
2023-08-01T10:03:02.459Z,95111.69
2023-08-01T10:05:33.082Z,95095.50
2023-08-01T10:08:05.234Z,95103.91
2023-08-01T10:10:34.320Z,95087.91
2023-08-01T10:13:03.738Z,95107.09
2023-08-01T10:15:32.713Z,95094.31
2023-08-01T10:18:03.849Z,95088.09
2023-08-01T10:20:33.187Z,95095.06
2023-08-01T10:23:03.944Z,95095.81
2023-08-01T10:25:33.328Z,95112.19
2023-08-01T10:28:04.070Z,95105.78
2023-08-01T10:30:33.659Z,95107.19
2023-08-01T10:33:04.216Z,95098.38
2023-08-01T10:35:37.245Z,95096.59
2023-08-01T10:38:11.834Z,95098.78
2023-08-01T10:40:43.901Z,95106.56
2023-08-01T10:43:22.823Z,95093.94
2023-08-01T10:45:51.612Z,95099.97
2023-08-01T10:48:20.449Z,95098.53
2023-08-01T10:50:57.961Z,95096.94
2023-08-01T10:53:28.187Z,95098.50
2023-08-01T10:55:57.342Z,95102.09
2023-08-01T10:58:30.164Z,95101.06
2023-08-01T11:01:02.402Z,95105.88
2023-08-01T11:03:37.916Z,95110.44
2023-08-01T11:06:07.086Z,95106.16
2023-08-01T11:08:41.768Z,95095.09
2023-08-01T11:11:15.817Z,95101.38
2023-08-01T11:13:53.619Z,95096.88
2023-08-01T11:16:22.656Z,95098.72
2023-08-01T11:18:51.540Z,95097.38
2023-08-01T11:21:29.128Z,95105.00
2023-08-01T11:24:00.198Z,95097.59
2023-08-01T11:26:28.884Z,95089.41
2023-08-01T11:28:57.331Z,95092.22
2023-08-01T11:31:32.342Z,95103.22
2023-08-01T11:34:01.055Z,95099.41
2023-08-01T11:36:31.056Z,95087.25
2023-08-01T11:39:02.899Z,95086.84
2023-08-01T11:41:32.313Z,95096.06
2023-08-01T11:44:05.764Z,95083.84
2023-08-01T11:46:37.922Z,95080.44
2023-08-01T11:49:07.241Z,95079.44
2023-08-01T11:51:42.517Z,95074.09
2023-08-01T11:54:14.587Z,95077.06
2023-08-01T11:56:45.141Z,95077.47
2023-08-01T11:59:15.595Z,95079.00
2023-08-01T12:01:47.970Z,95066.56
2023-08-01T12:04:27.094Z,95062.78
2023-08-01T12:07:02.094Z,95061.56
2023-08-01T12:09:34.651Z,95074.31
2023-08-01T12:12:03.819Z,95075.41
2023-08-01T12:14:32.891Z,95076.59
2023-08-01T12:17:02.305Z,95078.59
2023-08-01T12:19:30.787Z,95086.38
2023-08-01T12:22:01.347Z,95085.75
2023-08-01T12:24:31.638Z,95082.97
2023-08-01T12:27:00.801Z,95081.38
2023-08-01T12:29:29.824Z,95072.16
2023-08-01T12:31:59.137Z,95072.97
2023-08-01T12:34:27.452Z,95071.13
2023-08-01T12:36:56.565Z,95064.94
2023-08-01T12:39:27.902Z,95065.47
2023-08-01T12:41:58.753Z,95070.91
2023-08-01T12:44:27.708Z,95066.13
2023-08-01T12:46:56.694Z,95071.00
2023-08-01T12:49:25.428Z,95063.44
2023-08-01T12:51:54.108Z,95054.47
2023-08-01T12:54:23.747Z,95050.09
2023-08-01T12:56:52.648Z,95046.31
2023-08-01T12:59:22.694Z,95051.94
2023-08-01T13:01:52.717Z,95042.72
2023-08-01T13:04:21.192Z,95045.13
2023-08-01T13:06:50.172Z,95051.19
2023-08-01T13:09:21.262Z,95045.59
2023-08-01T13:11:49.893Z,95051.19
2023-08-01T13:14:19.846Z,95049.84
2023-08-01T13:16:51.831Z,95053.47
2023-08-01T13:19:21.078Z,95056.84
2023-08-01T13:21:50.153Z,95064.63
2023-08-01T13:24:19.051Z,95067.66
2023-08-01T13:26:48.001Z,95071.06
2023-08-01T13:29:17.096Z,95075.81
2023-08-01T13:31:46.115Z,95065.66
2023-08-01T13:34:16.209Z,95070.41
2023-08-01T13:36:46.873Z,95066.38
2023-08-01T13:39:15.476Z,95078.78
2023-08-01T13:41:44.619Z,95073.97
2023-08-01T13:44:13.773Z,95087.50
2023-08-01T13:46:42.564Z,95082.44
2023-08-01T13:49:11.890Z,95066.03
2023-08-01T13:51:45.285Z,95072.59
2023-08-01T13:54:14.041Z,95077.31
2023-08-01T13:56:43.313Z,95071.31
2023-08-01T13:59:12.497Z,95065.81
2023-08-01T14:01:41.627Z,95050.69
2023-08-01T14:04:10.498Z,95051.19
2023-08-01T14:06:39.739Z,95046.59
2023-08-01T14:09:12.992Z,95046.75
2023-08-01T14:11:41.790Z,95055.47
2023-08-01T14:14:10.566Z,95060.59
2023-08-01T14:16:39.962Z,95056.78
2023-08-01T14:19:09.420Z,95039.19
2023-08-01T14:21:38.103Z,95035.41
2023-08-01T14:24:09.436Z,95037.81
2023-08-01T14:26:41.127Z,95037.06
2023-08-01T14:29:10.680Z,95035.47
2023-08-01T14:31:39.259Z,95040.09
2023-08-01T14:34:07.881Z,95044.09
2023-08-01T14:36:36.772Z,95036.91
2023-08-01T14:39:16.979Z,95030.25
2023-08-01T14:44:28.871Z,95014.13
2023-08-01T14:47:00.253Z,95007.94
2023-08-01T14:49:31.069Z,94988.75
2023-08-01T14:52:02.677Z,94980.38
2023-08-01T14:54:40.716Z,94976.56
2023-08-01T14:57:11.670Z,94977.31
2023-08-01T14:59:40.500Z,94978.75
2023-08-01T15:02:11.874Z,94973.16
2023-08-01T15:04:41.094Z,94975.19
2023-08-01T15:07:10.213Z,94977.63
2023-08-01T15:09:39.930Z,94980.06
2023-08-01T15:12:10.750Z,95003.19
2023-08-01T15:14:39.941Z,95009.16
2023-08-01T15:17:10.515Z,95017.91
2023-08-01T15:19:40.937Z,95036.72
2023-08-01T15:22:10.688Z,95036.72
2023-08-01T15:24:40.046Z,95045.75
2023-08-01T15:27:08.874Z,95030.19
2023-08-01T15:29:39.620Z,95017.00
2023-08-01T15:32:09.717Z,95040.88
2023-08-01T15:34:38.842Z,95048.72
2023-08-01T15:37:10.572Z,95058.28
2023-08-01T15:39:43.837Z,95066.06
2023-08-01T15:42:13.445Z,95082.22
2023-08-01T15:44:43.736Z,95085.25
2023-08-01T15:47:12.479Z,95082.66
2023-08-01T15:49:43.551Z,95085.06
2023-08-01T15:52:16.069Z,95080.41
2023-08-01T15:54:44.967Z,95056.50
2023-08-01T15:57:13.773Z,95062.03
2023-08-01T15:59:48.492Z,95049.66
2023-08-01T16:02:17.767Z,95049.22
2023-08-01T16:04:47.223Z,95059.59
2023-08-01T16:07:34.788Z,95056.00
2023-08-01T16:10:03.627Z,95052.75
2023-08-01T16:12:31.927Z,95053.19
2023-08-01T16:15:02.678Z,95040.41
2023-08-01T16:17:31.448Z,95019.88
2023-08-01T16:20:00.754Z,95024.44
2023-08-01T16:22:29.388Z,95030.22
2023-08-01T16:25:01.449Z,95041.03
2023-08-01T16:27:48.244Z,95047.25
2023-08-01T16:30:18.495Z,95050.88
2023-08-01T16:32:47.737Z,95054.88
2023-08-01T16:35:17.046Z,95056.66
2023-08-01T16:37:45.944Z,95078.78
2023-08-01T16:40:15.315Z,95070.19
2023-08-01T16:42:45.357Z,95049.28
2023-08-01T16:45:14.701Z,95058.84
2023-08-01T16:47:48.920Z,95061.19
2023-08-01T16:50:23.486Z,95060.59
2023-08-01T16:52:52.965Z,95059.97
2023-08-01T16:55:22.048Z,95048.81
2023-08-01T16:57:55.591Z,95032.44
2023-08-01T17:00:29.117Z,95016.88
2023-08-01T17:02:59.523Z,95027.88
2023-08-01T17:05:30.891Z,95027.25
2023-08-01T17:08:01.972Z,95032.28
2023-08-01T17:10:34.600Z,95036.03
2023-08-01T17:13:03.368Z,95044.75
2023-08-01T17:15:33.081Z,95036.97
2023-08-01T17:18:03.622Z,95026.78
2023-08-01T17:20:37.365Z,95023.44
2023-08-01T17:23:05.984Z,95005.59
2023-08-01T17:25:35.174Z,95009.44
2023-08-01T17:28:04.090Z,95012.00
2023-08-01T17:30:33.005Z,95003.44
2023-08-01T17:33:03.500Z,95008.22
2023-08-01T17:35:32.908Z,95001.66
2023-08-01T17:38:02.404Z,95017.38
2023-08-01T17:40:32.114Z,95010.16
2023-08-01T17:43:02.435Z,95019.56
2023-08-01T17:45:31.287Z,95031.75
2023-08-01T17:48:00.774Z,95029.53
2023-08-01T17:50:30.993Z,95040.72
2023-08-01T17:52:59.731Z,95019.56
2023-08-01T17:55:28.904Z,95015.09
2023-08-01T17:57:58.034Z,95019.13
2023-08-01T18:00:27.241Z,95025.34
2023-08-01T18:02:56.221Z,95026.94
2023-08-01T18:05:25.153Z,95015.97
2023-08-01T18:08:00.706Z,94982.50
2023-08-01T18:10:32.427Z,95027.56
2023-08-01T18:13:01.813Z,95038.13
2023-08-01T18:15:30.985Z,95050.25
2023-08-01T18:18:00.095Z,95049.03
2023-08-01T18:20:28.657Z,95040.06
2023-08-01T18:22:59.337Z,95040.41
2023-08-01T18:25:28.207Z,95044.56
2023-08-01T18:27:59.699Z,95048.13
2023-08-01T18:30:30.544Z,95059.69
2023-08-01T18:32:59.581Z,95045.47
2023-08-01T18:35:28.625Z,95053.44
2023-08-01T18:37:59.528Z,95073.91
2023-08-01T18:40:29.336Z,95070.06
2023-08-01T18:42:58.507Z,95069.81
2023-08-01T18:45:27.519Z,95080.53
2023-08-01T18:47:56.346Z,95075.75
2023-08-01T18:50:25.700Z,95082.50
2023-08-01T18:52:54.415Z,95097.41
2023-08-01T18:55:25.449Z,95079.41
2023-08-01T18:57:54.611Z,95088.44
2023-08-01T19:00:23.796Z,95088.78
2023-08-01T19:02:52.535Z,95084.41
2023-08-01T19:05:22.143Z,95085.41
2023-08-01T19:07:51.498Z,95100.13
2023-08-01T19:10:20.876Z,95095.16
2023-08-01T19:12:51.591Z,95107.09
2023-08-01T19:15:20.562Z,95106.31
2023-08-01T19:17:50.488Z,95122.81
2023-08-01T19:20:19.686Z,95121.03
2023-08-01T19:22:51.180Z,95122.63
2023-08-01T19:25:20.550Z,95130.19
2023-08-01T19:27:51.297Z,95154.50
2023-08-01T19:30:19.851Z,95156.72
2023-08-01T19:32:48.581Z,95147.00
2023-08-01T19:35:22.591Z,95146.19
2023-08-01T19:37:51.279Z,95149.75
2023-08-01T19:40:20.392Z,95154.88
2023-08-01T19:42:52.552Z,95160.06
2023-08-01T19:45:21.821Z,95165.59
2023-08-01T19:47:52.645Z,95177.66
2023-08-01T19:50:22.103Z,95182.19
2023-08-01T19:52:52.233Z,95189.06
2023-08-01T19:55:22.689Z,95197.22
2023-08-01T19:57:54.000Z,95191.13
2023-08-01T20:00:23.802Z,95194.28
2023-08-01T20:02:53.166Z,95191.25
2023-08-01T20:05:22.128Z,95187.38
2023-08-01T20:07:52.573Z,95158.66
2023-08-01T20:10:21.611Z,95181.41
2023-08-01T20:12:50.784Z,95184.97
2023-08-01T20:15:21.275Z,95173.56
2023-08-01T20:17:50.472Z,95187.66
2023-08-01T20:20:20.003Z,95188.19
2023-08-01T20:22:50.327Z,95194.06
2023-08-01T20:25:19.975Z,95208.78
2023-08-01T20:27:49.415Z,95205.19
2023-08-01T20:30:18.619Z,95206.19
2023-08-01T20:32:49.297Z,95212.00
2023-08-01T20:35:18.213Z,95211.81
2023-08-01T20:37:47.411Z,95215.53
2023-08-01T20:40:18.186Z,95215.53
2023-08-01T20:42:48.847Z,95220.91
2023-08-01T20:45:17.903Z,95219.13
2023-08-01T20:47:49.451Z,95223.84
2023-08-01T20:50:18.841Z,95225.97
2023-08-01T20:52:48.053Z,95232.91
2023-08-01T20:55:17.129Z,95233.75
2023-08-01T20:57:45.942Z,95236.50
2023-08-01T21:00:15.558Z,95237.50
2023-08-01T21:02:45.053Z,95241.50
2023-08-01T21:05:15.544Z,95240.34
2023-08-01T21:07:44.475Z,95250.34
2023-08-01T21:10:14.392Z,95254.34
2023-08-01T21:12:47.371Z,95260.31
2023-08-01T21:15:18.100Z,95264.34
2023-08-01T21:17:46.949Z,95262.38
2023-08-01T21:20:18.269Z,95247.13
2023-08-01T21:22:46.646Z,95277.91
2023-08-01T21:25:15.616Z,95273.53
2023-08-01T21:27:44.404Z,95270.44
2023-08-01T21:30:14.845Z,95271.03
2023-08-01T21:32:44.128Z,95272.31
2023-08-01T21:35:12.721Z,95267.78
2023-08-01T21:37:43.374Z,95269.00
2023-08-01T21:40:13.327Z,95258.31
2023-08-01T21:42:42.101Z,95271.72
2023-08-01T21:45:12.167Z,95269.13
2023-08-01T21:47:41.406Z,95276.72
2023-08-01T21:50:11.289Z,95276.72
2023-08-01T21:52:39.752Z,95285.09
2023-08-01T21:55:10.887Z,95290.28
2023-08-01T21:57:39.927Z,95270.72
2023-08-01T22:00:11.664Z,95280.53
2023-08-01T22:02:43.679Z,95288.28
2023-08-01T22:05:12.742Z,95289.91
2023-08-01T22:07:43.055Z,95289.09
2023-08-01T22:10:13.868Z,95290.88
2023-08-01T22:12:44.019Z,95288.94
2023-08-01T22:15:13.170Z,95293.16
2023-08-01T22:17:42.097Z,95282.63
2023-08-01T22:20:11.934Z,95287.16
2023-08-01T22:22:41.414Z,95282.84
2023-08-01T22:25:16.266Z,95281.63
2023-08-01T22:27:45.396Z,95284.25
2023-08-01T22:30:14.648Z,95267.22
2023-08-01T22:32:43.565Z,95276.66
2023-08-01T22:35:12.793Z,95270.03
2023-08-01T22:37:41.187Z,95271.56
2023-08-01T22:40:11.056Z,95261.22
2023-08-01T22:42:41.283Z,95268.53
2023-08-01T22:45:11.188Z,95260.31
2023-08-01T22:47:41.339Z,95261.78
2023-08-01T22:50:10.873Z,95267.44
2023-08-01T22:52:40.048Z,95264.44
2023-08-01T22:55:09.967Z,95261.38
2023-08-01T22:57:38.806Z,95272.06
2023-08-01T23:00:10.986Z,95279.34
2023-08-01T23:02:40.332Z,95281.47
2023-08-01T23:05:12.192Z,95277.00
2023-08-01T23:07:43.137Z,95282.16
2023-08-01T23:10:12.454Z,95269.94
2023-08-01T23:12:43.313Z,95273.50
2023-08-01T23:15:13.530Z,95284.81
2023-08-01T23:17:42.572Z,95301.78
2023-08-01T23:20:11.905Z,95293.41
2023-08-01T23:22:41.039Z,95300.22
2023-08-01T23:25:09.921Z,95302.94
2023-08-01T23:27:39.153Z,95296.16
2023-08-01T23:30:09.811Z,95290.19
2023-08-01T23:32:40.446Z,95287.78
2023-08-01T23:35:10.143Z,95293.94
2023-08-01T23:37:39.235Z,95296.88
2023-08-01T23:40:08.985Z,95280.72
2023-08-01T23:42:38.274Z,95287.66
2023-08-01T23:45:08.222Z,95294.13
2023-08-01T23:47:37.306Z,95295.47
2023-08-01T23:50:08.229Z,95300.16
2023-08-01T23:52:37.504Z,95298.88
2023-08-01T23:55:07.334Z,95301.16
2023-08-01T23:57:36.324Z,95306.97
